Terminal Aerodrome Forecast
Issued by NWS Caribou, ME

Home | Current Version | Previous Version | Text Only | Print | Product List | Glossary On
Versions: 1 2 3 4 5 6 7 8 9 10 11 12 13 14 15 16
000
FTUS41 KCAR 240500 RRA
TAFCAR
TAF
KCAR 240548Z 2406/2506 02010G20KT 5SM -RA SCT025 OVC050
     FM240900 01012G22KT 4SM -RA OVC015
     FM241200 01010KT 5SM -RA OVC015
     FM250100 35007KT P6SM -RA SCT015 OVC025=

USA.gov is the U.S. government's official web portal to all federal, state and local government web resources and services.